Time;durP1;ratioP1;P1;durP2;ratioP2;P2;SDS_P1;SDS_P2;PMS_P1;PMS_P2;Temp;Humidity;BMP_temperature;BMP_pressure;BME280_temperature;BME280_humidity;BME280_pressure;Samples;Min_cycle;Max_cycle;Signal;HPM_P1;HPM_P2
2022/11/30 00:01:19;;;;;;;20.52;13.13;;;;;;;7.93;100.00;102128.25;5006086;28;20060;-48
2022/11/30 00:03:47;;;;;;;21.67;13.10;;;;;;;7.92;100.00;102134.75;5008953;28;20488;-53
2022/11/30 00:06:21;;;;;;;18.23;12.23;;;;;;;7.92;100.00;102132.03;4988482;28;20501;-52
2022/11/30 00:08:53;;;;;;;18.25;11.68;;;;;;;7.94;100.00;102137.22;4991917;28;20053;-51
2022/11/30 00:11:21;;;;;;;17.42;11.10;;;;;;;7.89;100.00;102137.91;4991307;28;20497;-51
2022/11/30 00:13:49;;;;;;;18.80;12.00;;;;;;;7.88;100.00;102141.66;4977457;28;20073;-52
2022/11/30 00:16:17;;;;;;;16.92;11.48;;;;;;;7.87;100.00;102140.00;4975156;28;20501;-50
2022/11/30 00:18:44;;;;;;;17.50;11.02;;;;;;;7.88;100.00;102134.34;5000213;28;20412;-51
2022/11/30 00:21:13;;;;;;;16.98;11.50;;;;;;;7.92;100.00;102131.22;4974235;28;20042;-51
2022/11/30 00:23:43;;;;;;;17.00;11.60;;;;;;;7.93;100.00;102130.97;4976719;28;20480;-51
2022/11/30 00:26:13;;;;;;;16.90;10.77;;;;;;;7.96;100.00;102130.56;5010487;28;20092;-54
2022/11/30 00:28:42;;;;;;;17.42;11.30;;;;;;;7.97;100.00;102134.94;5003563;28;20508;-49
2022/11/30 00:31:12;;;;;;;17.67;11.50;;;;;;;7.96;100.00;102130.56;4996233;28;20563;-51
2022/11/30 00:33:41;;;;;;;16.90;10.98;;;;;;;7.94;100.00;102134.53;4964467;28;20057;-48
2022/11/30 00:36:14;;;;;;;15.05;10.57;;;;;;;7.91;100.00;102124.94;4957346;28;20043;-50
2022/11/30 00:38:42;;;;;;;17.33;10.80;;;;;;;7.91;100.00;102127.66;4987463;28;20055;-50
2022/11/30 00:41:10;;;;;;;15.13;10.63;;;;;;;7.90;100.00;102128.72;4968763;28;20043;-51
2022/11/30 00:43:37;;;;;;;15.80;11.05;;;;;;;7.90;100.00;102129.53;4981758;28;20039;-49
2022/11/30 00:46:07;;;;;;;17.25;10.70;;;;;;;7.90;100.00;102131.44;4974425;28;20038;-51
2022/11/30 00:48:36;;;;;;;17.10;10.68;;;;;;;7.91;100.00;102133.06;4967884;28;20046;-49
2022/11/30 00:51:04;;;;;;;16.60;11.23;;;;;;;7.89;100.00;102133.31;4975661;28;20109;-51
2022/11/30 00:53:32;;;;;;;18.33;10.52;;;;;;;7.86;100.00;102130.19;4973048;28;20054;-51
2022/11/30 00:56:00;;;;;;;16.40;10.27;;;;;;;7.88;100.00;102130.81;4958399;28;20093;-50
2022/11/30 00:58:28;;;;;;;14.63;10.48;;;;;;;7.85;100.00;102131.25;4976816;28;21050;-48
2022/11/30 01:00:55;;;;;;;15.65;10.40;;;;;;;7.86;100.00;102130.19;4979604;28;20089;-49
2022/11/30 01:03:23;;;;;;;14.73;10.00;;;;;;;7.89;100.00;102138.75;4986877;28;20042;-47
2022/11/30 01:05:50;;;;;;;16.33;10.90;;;;;;;7.90;100.00;102134.97;4966874;28;20046;-50
2022/11/30 01:08:18;;;;;;;16.17;10.80;;;;;;;7.94;100.00;102131.81;4972870;28;20041;-47
2022/11/30 01:10:52;;;;;;;15.75;10.57;;;;;;;7.96;100.00;102138.72;4956236;28;20034;-47
2022/11/30 01:13:19;;;;;;;15.00;10.63;;;;;;;7.97;100.00;102143.06;4985703;28;20039;-49
2022/11/30 01:15:47;;;;;;;17.63;10.20;;;;;;;7.96;100.00;102141.44;4973898;28;20065;-50
2022/11/30 01:18:14;;;;;;;14.40;10.27;;;;;;;7.95;100.00;102142.47;4973960;28;20035;-52
2022/11/30 01:20:42;;;;;;;14.57;10.32;;;;;;;7.95;100.00;102142.47;4967982;28;20049;-50
2022/11/30 01:23:10;;;;;;;14.48;10.02;;;;;;;7.96;100.00;102146.00;4977665;28;20094;-51
2022/11/30 01:25:38;;;;;;;14.05;9.82;;;;;;;7.96;100.00;102149.56;4976699;28;20058;-48
2022/11/30 01:28:07;;;;;;;14.73;10.30;;;;;;;7.96;100.00;102148.72;4967370;28;20090;-51
2022/11/30 01:30:35;;;;;;;17.98;10.60;;;;;;;7.95;100.00;102149.78;4962273;28;20067;-49
2022/11/30 01:33:05;;;;;;;18.92;11.15;;;;;;;7.93;100.00;102144.56;4963017;28;20518;-52
2022/11/30 01:35:33;;;;;;;15.02;9.88;;;;;;;7.94;100.00;102159.81;4974320;28;20042;-47
2022/11/30 01:38:01;;;;;;;16.42;10.65;;;;;;;7.93;100.00;102152.69;4956398;28;20094;-46
2022/11/30 01:40:28;;;;;;;14.10;9.57;;;;;;;7.93;100.00;102155.41;4974914;28;20114;-47
2022/11/30 01:42:56;;;;;;;15.20;10.23;;;;;;;7.90;100.00;102153.97;4972465;28;20042;-46
2022/11/30 01:45:23;;;;;;;14.98;9.70;;;;;;;7.91;100.00;102162.94;4985929;28;20042;-46
2022/11/30 01:47:53;;;;;;;13.82;9.40;;;;;;;7.91;100.00;102160.22;4992528;28;20034;-50
2022/11/30 01:50:25;;;;;;;15.05;9.50;;;;;;;7.92;100.00;102159.19;5003441;28;20042;-49
2022/11/30 01:52:55;;;;;;;14.43;9.73;;;;;;;7.93;100.00;102160.00;4993293;28;20042;-50
2022/11/30 01:55:34;;;;;;;18.73;9.90;;;;;;;7.88;100.00;102161.47;4995894;28;20038;-48
2022/11/30 01:58:12;;;;;;;16.27;9.98;;;;;;;7.85;100.00;102159.22;4981097;28;20053;-50
2022/11/30 02:00:45;;;;;;;15.75;9.77;;;;;;;7.83;100.00;102164.03;5007308;28;20489;-49
2022/11/30 02:03:25;;;;;;;16.63;9.80;;;;;;;7.86;100.00;102165.47;4998192;28;20071;-49
2022/11/30 02:05:53;;;;;;;15.00;10.55;;;;;;;7.88;100.00;102169.63;4982240;28;20050;-50
2022/11/30 02:08:21;;;;;;;15.75;10.07;;;;;;;7.90;100.00;102174.84;4999053;28;20038;-50
2022/11/30 02:10:56;;;;;;;14.98;9.88;;;;;;;7.90;100.00;102172.13;5016283;28;20073;-49
2022/11/30 02:13:57;;;;;;;14.70;10.25;;;;;;;7.89;100.00;102175.91;4978973;28;20046;-49
2022/11/30 02:16:43;;;;;;;17.52;11.07;;;;;;;7.89;100.00;102175.91;5013850;28;20042;-51
2022/11/30 02:19:13;;;;;;;14.30;10.07;;;;;;;7.92;100.00;102174.63;5016418;28;20049;-48
2022/11/30 02:22:02;;;;;;;16.63;10.60;;;;;;;7.94;100.00;102178.81;5015799;28;20053;-51
2022/11/30 02:24:36;;;;;;;14.80;10.32;;;;;;;7.92;100.00;102170.03;4995605;28;20089;-50
2022/11/30 02:27:29;;;;;;;18.05;10.93;;;;;;;7.90;100.00;102162.09;5016291;28;20057;-50
2022/11/30 02:30:08;;;;;;;13.00;9.80;;;;;;;7.89;100.00;102165.06;5012696;28;20042;-52
2022/11/30 02:32:51;;;;;;;19.15;10.35;;;;;;;7.92;100.00;102169.22;4999251;28;20440;-50
2022/11/30 02:35:22;;;;;;;13.73;9.65;;;;;;;7.93;100.00;102170.88;5001885;28;20100;-48
2022/11/30 02:37:51;;;;;;;13.13;9.98;;;;;;;7.92;100.00;102170.03;4998409;28;20046;-49
2022/11/30 02:40:19;;;;;;;13.85;10.13;;;;;;;7.94;100.00;102170.66;4998377;28;20068;-46
2022/11/30 02:42:49;;;;;;;15.18;9.93;;;;;;;7.97;100.00;102172.09;5003186;28;20046;-46
2022/11/30 02:45:20;;;;;;;13.98;9.23;;;;;;;7.97;100.00;102167.50;4999748;28;20049;-52
2022/11/30 02:47:56;;;;;;;15.65;10.73;;;;;;;7.97;100.00;102175.66;5005692;28;20141;-51
2022/11/30 02:50:32;;;;;;;;;;;;;;;7.97;100.00;102178.34;4982919;28;20507;-51
2022/11/30 02:52:59;;;;;;;;;;;;;;;7.98;100.00;102168.31;4985043;28;19936;-49
2022/11/30 02:55:28;;;;;;;14.55;9.52;;;;;;;7.99;100.00;102168.13;5001089;28;19928;-48
2022/11/30 02:57:55;;;;;;;13.80;9.88;;;;;;;7.99;100.00;102170.84;4985708;28;20042;-52
2022/11/30 03:00:23;;;;;;;15.95;9.77;;;;;;;8.00;100.00;102167.06;5001558;28;20057;-48
2022/11/30 03:02:51;;;;;;;14.18;10.30;;;;;;;8.00;100.00;102172.47;5012866;28;20089;-50
2022/11/30 03:05:18;;;;;;;15.25;10.27;;;;;;;8.00;100.00;102183.34;5002190;28;20047;-51
2022/11/30 03:07:46;;;;;;;14.98;9.98;;;;;;;8.00;100.00;102172.47;5009635;28;20386;-52
2022/11/30 03:10:14;;;;;;;14.18;10.25;;;;;;;8.00;100.00;102172.47;4990235;28;20571;-49
2022/11/30 03:12:41;;;;;;;16.30;11.05;;;;;;;8.01;100.00;102179.59;5010485;28;20046;-55
2022/11/30 03:15:09;;;;;;;14.95;10.10;;;;;;;7.99;100.00;102176.25;4977356;28;20480;-51
2022/11/30 03:17:37;;;;;;;14.77;10.40;;;;;;;8.00;100.00;102177.09;5011946;28;20052;-50
2022/11/30 03:20:05;;;;;;;14.18;9.95;;;;;;;8.00;100.00;102171.66;5014888;28;20088;-53
2022/11/30 03:22:33;;;;;;;14.65;10.18;;;;;;;8.00;100.00;102167.06;4997797;28;20042;-52
2022/11/30 03:25:00;;;;;;;18.55;10.77;;;;;;;8.00;100.00;102177.91;4996572;28;20046;-52
2022/11/30 03:27:28;;;;;;;13.57;10.05;;;;;;;7.99;100.00;102176.25;5007134;28;20041;-48
2022/11/30 03:29:55;;;;;;;14.07;9.88;;;;;;;7.99;100.00;102180.88;5015115;28;20054;-50
2022/11/30 03:32:23;;;;;;;14.90;10.20;;;;;;;7.97;100.00;102181.06;5014696;28;20053;-52
2022/11/30 03:34:51;;;;;;;13.88;10.45;;;;;;;7.96;100.00;102181.28;5000921;28;20043;-50
2022/11/30 03:37:18;;;;;;;14.75;10.75;;;;;;;7.93;100.00;102171.69;4994118;28;20412;-50
2022/11/30 03:39:46;;;;;;;17.05;11.02;;;;;;;7.92;100.00;102172.75;5011898;28;20065;-51
2022/11/30 03:42:14;;;;;;;13.90;10.63;;;;;;;7.92;100.00;102174.63;4997441;28;20046;-50
2022/11/30 03:44:41;;;;;;;14.05;10.38;;;;;;;7.93;100.00;102181.72;5005907;28;20041;-48
2022/11/30 03:47:09;;;;;;;18.80;10.40;;;;;;;7.93;100.00;102182.53;4999783;28;20129;-48
2022/11/30 03:49:36;;;;;;;16.90;10.50;;;;;;;7.95;100.00;102183.16;5007465;28;20042;-46
2022/11/30 03:52:04;;;;;;;14.45;10.52;;;;;;;7.98;100.00;102180.00;4982064;28;20087;-52
2022/11/30 03:54:32;;;;;;;13.73;10.40;;;;;;;7.97;100.00;102183.78;4986190;28;20047;-51
2022/11/30 03:56:59;;;;;;;14.90;10.85;;;;;;;7.96;100.00;102187.56;4994177;28;20046;-50
2022/11/30 03:59:27;;;;;;;14.45;10.77;;;;;;;7.95;100.00;102191.31;5002003;28;20045;-49
2022/11/30 04:01:55;;;;;;;17.65;11.38;;;;;;;7.94;100.00;102196.94;5014153;28;20096;-50
2022/11/30 04:04:22;;;;;;;15.25;10.65;;;;;;;7.94;100.00;102189.66;5004725;28;20049;-50
2022/11/30 04:06:50;;;;;;;16.80;11.10;;;;;;;7.94;100.00;102189.66;5002219;28;20042;-49
2022/11/30 04:09:18;;;;;;;16.05;11.52;;;;;;;7.95;100.00;102190.47;5009366;28;20038;-51
2022/11/30 04:11:45;;;;;;;15.13;10.68;;;;;;;7.94;100.00;102192.38;4976542;28;20058;-50
2022/11/30 04:14:13;;;;;;;16.52;10.98;;;;;;;7.93;100.00;102193.41;5005945;28;22064;-50
2022/11/30 04:16:40;;;;;;;15.95;11.38;;;;;;;7.90;100.00;102199.28;5003104;28;20122;-50
2022/11/30 04:19:08;;;;;;;16.73;10.75;;;;;;;7.89;100.00;102198.44;4997129;28;20049;-53
2022/11/30 04:21:36;;;;;;;13.95;10.60;;;;;;;7.90;100.00;102204.69;5013829;28;20108;-52
2022/11/30 04:24:03;;;;;;;14.93;10.75;;;;;;;7.89;100.00;102197.63;5014032;28;20496;-49
2022/11/30 04:26:31;;;;;;;14.40;10.98;;;;;;;7.89;100.00;102194.91;4995260;28;20043;-50
2022/11/30 04:28:58;;;;;;;14.27;10.95;;;;;;;7.89;100.00;102200.31;4993847;28;20559;-49
2022/11/30 04:31:30;;;;;;;15.40;10.25;;;;;;;7.87;100.00;102194.28;5001957;28;20460;-51
2022/11/30 04:33:58;;;;;;;14.10;10.82;;;;;;;7.87;100.00;102186.16;5014053;28;20052;-50
2022/11/30 04:36:26;;;;;;;15.25;10.70;;;;;;;7.88;100.00;102195.94;5003544;28;20048;-51
2022/11/30 04:38:54;;;;;;;18.27;11.85;;;;;;;7.87;100.00;102191.56;4995795;28;20497;-54
2022/11/30 04:41:21;;;;;;;16.90;11.88;;;;;;;7.86;100.00;102195.31;5009954;28;20072;-52
2022/11/30 04:43:49;;;;;;;19.38;11.73;;;;;;;7.85;100.00;102188.22;4991025;28;20034;-52
2022/11/30 04:46:16;;;;;;;15.02;11.20;;;;;;;7.83;100.00;102187.63;4996540;28;20046;-51
2022/11/30 04:48:44;;;;;;;15.55;11.38;;;;;;;7.83;100.00;102187.63;5002679;28;20096;-52
2022/11/30 04:51:11;;;;;;;16.02;10.80;;;;;;;7.82;100.00;102197.63;4989367;28;20037;-50
2022/11/30 04:53:39;;;;;;;14.80;10.80;;;;;;;7.81;100.00;102187.81;5013208;28;20046;-49
2022/11/30 04:56:08;;;;;;;17.98;11.88;;;;;;;7.82;100.00;102196.81;5003435;28;20046;-46
2022/11/30 04:58:37;;;;;;;16.75;10.90;;;;;;;7.80;100.00;102194.31;4980117;28;20084;-49
2022/11/30 05:01:06;;;;;;;15.95;11.15;;;;;;;7.78;100.00;102192.84;5002044;28;20552;-51
2022/11/30 05:03:34;;;;;;;15.35;11.00;;;;;;;7.77;100.00;102193.88;4979048;28;20381;-50
2022/11/30 05:06:02;;;;;;;16.50;11.27;;;;;;;7.76;100.00;102193.06;4974923;28;20050;-49
2022/11/30 05:08:29;;;;;;;15.75;10.75;;;;;;;7.77;100.00;102191.19;4972462;28;20054;-49
2022/11/30 05:10:57;;;;;;;15.38;10.75;;;;;;;7.77;100.00;102192.03;4974658;28;20040;-46
2022/11/30 05:13:26;;;;;;;14.90;10.82;;;;;;;7.78;100.00;102195.56;4978244;28;20093;-47
2022/11/30 05:15:53;;;;;;;14.85;10.25;;;;;;;7.76;100.00;102201.19;4987960;28;20042;-49
2022/11/30 05:18:21;;;;;;;15.48;10.75;;;;;;;7.74;100.00;102200.56;4991091;28;20050;-47
2022/11/30 05:20:53;;;;;;;16.75;10.82;;;;;;;7.72;100.00;102200.00;4976585;28;20535;-46
2022/11/30 05:23:21;;;;;;;15.35;10.23;;;;;;;7.69;100.00;102203.94;4976643;28;20042;-46
2022/11/30 05:25:49;;;;;;;15.55;10.93;;;;;;;7.71;100.00;102200.19;4974393;28;20046;-46
2022/11/30 05:28:17;;;;;;;14.68;9.65;;;;;;;7.71;100.00;102194.75;4983305;28;20449;-47
2022/11/30 05:30:44;;;;;;;15.27;9.60;;;;;;;7.71;100.00;102200.19;4977642;28;20120;-45
2022/11/30 05:33:12;;;;;;;17.15;9.90;;;;;;;7.71;100.00;102205.63;4977146;28;20057;-47
2022/11/30 05:35:40;;;;;;;12.68;9.40;;;;;;;7.71;100.00;102211.88;4965362;28;20050;-46
2022/11/30 05:38:07;;;;;;;15.80;9.68;;;;;;;7.70;100.00;102204.78;4971008;28;20501;-46
2022/11/30 05:40:35;;;;;;;12.20;9.00;;;;;;;7.72;100.00;102218.13;4993927;28;20061;-52
2022/11/30 05:43:03;;;;;;;14.05;9.15;;;;;;;7.72;100.00;102220.84;4984021;28;20409;-48
2022/11/30 05:45:31;;;;;;;12.43;8.80;;;;;;;7.70;100.00;102221.06;4963042;28;20066;-45
2022/11/30 05:47:59;;;;;;;13.85;9.25;;;;;;;7.68;100.00;102223.97;4977931;28;20058;-45
2022/11/30 05:50:26;;;;;;;12.57;8.73;;;;;;;7.67;100.00;102222.34;4987077;28;20062;-45
2022/11/30 05:52:59;;;;;;;14.85;8.80;;;;;;;7.68;100.00;102223.97;4967204;28;20526;-47
2022/11/30 05:55:28;;;;;;;13.38;8.68;;;;;;;7.69;100.00;102228.34;5009722;28;20085;-46
2022/11/30 05:57:56;;;;;;;17.48;8.88;;;;;;;7.69;100.00;102213.97;4999561;28;20034;-50
2022/11/30 06:00:23;;;;;;;13.60;9.20;;;;;;;7.73;100.00;102211.66;4983554;28;20046;-47
2022/11/30 06:02:57;;;;;;;12.10;8.80;;;;;;;7.75;100.00;102218.53;4988079;28;20104;-48
2022/11/30 06:05:26;;;;;;;14.48;9.43;;;;;;;7.74;100.00;102221.47;4979146;28;20074;-46
2022/11/30 06:07:54;;;;;;;13.02;8.60;;;;;;;7.72;100.00;102218.13;4967812;28;20043;-49
2022/11/30 06:10:24;;;;;;;13.82;8.98;;;;;;;7.74;100.00;102221.47;4979097;28;20038;-49
2022/11/30 06:12:52;;;;;;;13.27;9.15;;;;;;;7.73;100.00;102225.22;4995668;28;20092;-47
2022/11/30 06:15:20;;;;;;;14.85;10.15;;;;;;;7.72;100.00;102228.97;4993621;28;20053;-46
2022/11/30 06:17:47;;;;;;;14.23;9.98;;;;;;;7.69;100.00;102228.34;4984928;28;20046;-46
2022/11/30 06:20:15;;;;;;;16.45;10.00;;;;;;;7.68;100.00;102239.44;4979471;28;20053;-47
2022/11/30 06:22:45;;;;;;;13.68;8.77;;;;;;;7.66;100.00;102231.50;4983127;28;20046;-48
2022/11/30 06:25:13;;;;;;;15.98;10.20;;;;;;;7.64;100.00;102230.88;4979234;28;20444;-47
2022/11/30 06:27:42;;;;;;;15.38;9.88;;;;;;;7.64;100.00;102232.75;4981928;28;20039;-46
2022/11/30 06:30:10;;;;;;;13.07;9.57;;;;;;;7.63;100.00;102234.66;4984487;28;20054;-46
2022/11/30 06:32:38;;;;;;;12.57;9.70;;;;;;;7.63;100.00;102241.97;4976626;28;20401;-49
2022/11/30 06:35:06;;;;;;;16.25;10.68;;;;;;;7.58;100.00;102237.16;4990554;28;20046;-49
2022/11/30 06:37:34;;;;;;;15.13;10.75;;;;;;;7.54;100.00;102241.34;4979420;28;20043;-49
2022/11/30 06:40:02;;;;;;;14.20;10.20;;;;;;;7.53;100.00;102242.41;4982070;28;20114;-49
2022/11/30 06:42:35;;;;;;;15.98;10.45;;;;;;;7.54;100.00;102245.94;4962383;28;20054;-48
2022/11/30 06:45:03;;;;;;;17.15;11.18;;;;;;;7.55;100.00;102245.75;4964634;28;20054;-53
2022/11/30 06:47:31;;;;;;;16.02;11.27;;;;;;;7.50;100.00;102242.81;4977172;28;20035;-51
2022/11/30 06:49:58;;;;;;;15.10;10.38;;;;;;;7.50;100.00;102237.38;4970169;28;20093;-50
2022/11/30 06:52:27;;;;;;;13.77;9.68;;;;;;;7.52;100.00;102248.84;4957991;28;20051;-50
2022/11/30 06:54:55;;;;;;;15.40;10.55;;;;;;;7.53;100.00;102246.97;4280844;28;10000711;-50
2022/11/30 06:57:27;;;;;;;15.90;10.93;;;;;;;7.54;100.00;102249.47;4992778;28;20042;-49
2022/11/30 06:59:55;;;;;;;17.73;11.40;;;;;;;7.55;100.00;102251.16;5004305;28;20057;-49
2022/11/30 07:02:23;;;;;;;15.85;9.98;;;;;;;7.57;100.00;102256.34;4980157;28;20615;-50
2022/11/30 07:04:50;;;;;;;14.45;10.48;;;;;;;7.58;100.00;102255.34;4982340;28;20061;-51
2022/11/30 07:07:18;;;;;;;15.55;10.40;;;;;;;7.58;100.00;102256.16;5002067;28;20050;-52
2022/11/30 07:09:46;;;;;;;14.85;10.35;;;;;;;7.58;100.00;102261.59;4975136;28;20064;-50
2022/11/30 07:12:13;;;;;;;13.43;9.73;;;;;;;7.59;100.00;102254.28;4995055;28;20046;-50
2022/11/30 07:14:41;;;;;;;16.42;9.98;;;;;;;7.57;100.00;102259.91;5000721;28;20057;-48
2022/11/30 07:17:08;;;;;;;15.15;10.40;;;;;;;7.56;100.00;102263.66;4975968;28;20051;-46
2022/11/30 07:19:36;;;;;;;15.13;10.27;;;;;;;7.54;100.00;102271.19;4997446;28;20050;-45
2022/11/30 07:22:04;;;;;;;16.80;10.73;;;;;;;7.51;100.00;102271.63;4998927;28;20141;-48
2022/11/30 07:27:18;;;;;;;16.60;10.13;;;;;;;7.45;100.00;102288.72;5004665;28;20046;-50
2022/11/30 07:29:47;;;;;;;12.88;9.60;;;;;;;7.44;100.00;102287.06;5011162;28;20041;-46
2022/11/30 07:32:15;;;;;;;16.48;10.10;;;;;;;7.43;100.00;102293.50;4983293;28;20045;-48
2022/11/30 07:34:43;;;;;;;19.08;11.13;;;;;;;7.42;100.00;102291.84;5001290;28;20096;-49
2022/11/30 07:37:11;;;;;;;15.40;9.93;;;;;;;7.44;100.00;102303.34;5001592;28;20042;-48
2022/11/30 07:39:38;;;;;;;15.30;10.27;;;;;;;7.45;100.00;102302.28;5012216;28;20137;-50
2022/11/30 07:42:06;;;;;;;15.18;10.23;;;;;;;7.45;100.00;102291.44;5005369;28;20206;-49
2022/11/30 07:44:34;;;;;;;16.17;10.75;;;;;;;7.45;100.00;102296.84;5008427;28;20042;-50
2022/11/30 07:47:01;;;;;;;16.80;10.15;;;;;;;7.44;100.00;102301.44;5009744;28;20096;-49
2022/11/30 07:49:29;;;;;;;13.82;10.32;;;;;;;7.44;100.00;102303.34;4984815;28;20054;-48
2022/11/30 07:51:56;;;;;;;17.17;11.25;;;;;;;7.42;100.00;102300.81;4975173;28;20043;-50
2022/11/30 07:54:24;;;;;;;15.25;10.45;;;;;;;7.44;100.00;102306.88;4982130;28;20054;-51
2022/11/30 07:56:51;;;;;;;17.58;11.35;;;;;;;7.44;100.00;102303.34;5014436;28;20042;-48
2022/11/30 07:59:19;;;;;;;17.17;12.52;;;;;;;7.41;100.00;102314.59;5009370;28;20089;-51
2022/11/30 08:01:47;;;;;;;15.52;11.52;;;;;;;7.34;100.00;102319.19;5009080;28;20057;-51
2022/11/30 08:04:14;;;;;;;18.00;12.30;;;;;;;7.28;100.00;102309.19;4994048;28;20046;-49
2022/11/30 08:06:43;;;;;;;17.05;11.82;;;;;;;7.27;100.00;102313.78;5005473;28;20441;-51
2022/11/30 08:09:11;;;;;;;17.10;12.43;;;;;;;7.29;100.00;102316.25;5014275;28;20404;-50
2022/11/30 08:11:48;;;;;;;17.70;11.10;;;;;;;7.33;100.00;102318.34;5014065;28;20084;-50
2022/11/30 08:14:16;;;;;;;15.23;11.38;;;;;;;7.35;100.00;102315.44;4999382;28;20038;-53
2022/11/30 08:16:43;;;;;;;15.27;11.68;;;;;;;7.36;100.00;102317.09;5013991;28;20053;-49
2022/11/30 08:19:11;;;;;;;17.25;12.00;;;;;;;7.39;100.00;102316.69;5004020;28;20122;-50
2022/11/30 08:21:39;;;;;;;16.92;11.50;;;;;;;7.41;100.00;102325.44;4976212;28;20046;-51
2022/11/30 08:24:08;;;;;;;17.90;11.90;;;;;;;7.41;100.00;102330.88;4981891;28;20038;-47
2022/11/30 08:26:36;;;;;;;15.82;11.40;;;;;;;7.42;100.00;102332.53;4967828;28;20558;-51
2022/11/30 08:29:03;;;;;;;16.70;12.02;;;;;;;7.42;100.00;102332.53;4974780;28;20061;-47
2022/11/30 08:31:33;;;;;;;16.95;12.20;;;;;;;7.40;100.00;102327.31;4971193;28;20050;-49
2022/11/30 08:34:09;;;;;;;17.42;12.93;;;;;;;7.41;100.00;102336.31;4984443;28;20130;-50
2022/11/30 08:36:37;;;;;;;17.85;12.90;;;;;;;7.42;100.00;102343.38;4952131;28;20046;-48
2022/11/30 08:39:07;;;;;;;17.90;12.88;;;;;;;7.42;100.00;102341.50;4976405;28;20505;-49
2022/11/30 08:41:35;;;;;;;17.73;13.35;;;;;;;7.42;100.00;102338.78;4976559;28;20121;-48
2022/11/30 08:44:03;;;;;;;17.42;13.55;;;;;;;7.41;100.00;102347.16;4973748;28;20050;-53
2022/11/30 08:46:31;;;;;;;17.90;12.65;;;;;;;7.42;100.00;102354.22;4957263;28;20404;-45
2022/11/30 08:49:19;;;;;;;17.55;13.30;;;;;;;7.45;100.00;102353.81;4960313;28;20045;-49
2022/11/30 08:51:52;;;;;;;21.27;14.07;;;;;;;7.45;100.00;102351.09;4975961;28;20069;-50
2022/11/30 08:54:43;;;;;;;18.17;13.73;;;;;;;7.41;100.00;102347.97;5002421;28;20547;-49
2022/11/30 08:57:11;;;;;;;22.27;13.85;;;;;;;7.44;100.00;102355.69;4996458;28;20488;-49
2022/11/30 08:59:38;;;;;;;19.77;14.68;;;;;;;7.42;100.00;102349.63;5007140;28;20042;-49
2022/11/30 09:02:08;;;;;;;18.30;14.07;;;;;;;7.42;100.00;102354.22;4988577;28;20339;-49
2022/11/30 09:04:35;;;;;;;19.17;15.23;;;;;;;7.42;100.00;102354.22;4985874;28;20039;-50
2022/11/30 09:07:03;;;;;;;20.50;15.55;;;;;;;7.42;100.00;102349.63;4987829;28;20485;-49
2022/11/30 09:09:31;;;;;;;21.77;15.57;;;;;;;7.43;100.00;102355.88;4993350;28;20453;-50
2022/11/30 09:12:02;;;;;;;23.20;16.42;;;;;;;7.42;100.00;102351.50;4992444;28;20133;-49
2022/11/30 09:14:30;;;;;;;22.27;15.50;;;;;;;7.46;100.00;102358.19;4992374;28;20134;-48
2022/11/30 09:16:58;;;;;;;21.92;16.02;;;;;;;7.48;100.00;102358.81;4971547;28;20042;-50
2022/11/30 09:19:25;;;;;;;21.48;15.52;;;;;;;7.47;100.00;102368.00;4991757;28;20382;-50
2022/11/30 09:21:53;;;;;;;20.77;15.07;;;;;;;7.50;100.00;102361.31;4967938;28;20101;-49
2022/11/30 09:24:21;;;;;;;21.15;14.77;;;;;;;7.54;100.00;102368.00;4985817;28;20048;-48
2022/11/30 09:26:48;;;;;;;18.88;14.20;;;;;;;7.57;100.00;102365.69;4990112;28;20046;-50
2022/11/30 09:29:16;;;;;;;19.48;14.07;;;;;;;7.60;100.00;102373.41;4985668;28;20043;-48
2022/11/30 09:31:44;;;;;;;19.23;14.55;;;;;;;7.63;100.00;102374.88;4971308;28;20065;-51
2022/11/30 09:34:11;;;;;;;20.20;14.35;;;;;;;7.65;100.00;102370.91;4986424;28;20112;-49
2022/11/30 09:36:39;;;;;;;21.73;14.63;;;;;;;7.68;100.00;102380.50;4974541;28;20525;-49
2022/11/30 09:39:09;;;;;;;23.58;15.63;;;;;;;7.69;100.00;102372.13;4979958;28;20063;-48
2022/11/30 09:41:43;;;;;;;20.75;14.93;;;;;;;7.71;100.00;102379.25;4987891;28;20130;-49
2022/11/30 09:44:35;;;;;;;20.23;15.18;;;;;;;7.72;100.00;102375.47;4984307;28;20046;-48
2022/11/30 09:47:33;;;;;;;21.02;15.18;;;;;;;7.74;100.00;102376.09;4980247;28;20579;-49
2022/11/30 09:50:11;;;;;;;20.20;15.70;;;;;;;7.69;100.00;102366.72;4976203;28;20054;-51
2022/11/30 09:52:57;;;;;;;21.10;15.52;;;;;;;7.67;100.00;102368.81;4966922;28;20046;-56
2022/11/30 09:55:40;;;;;;;20.67;15.52;;;;;;;7.69;100.00;102368.59;4992059;28;20120;-51
2022/11/30 09:58:20;;;;;;;22.10;16.52;;;;;;;7.71;100.00;102365.69;4981679;28;20039;-48
2022/11/30 10:00:48;;;;;;;21.42;16.70;;;;;;;7.71;100.00;102365.69;4986368;28;20065;-49
2022/11/30 10:03:18;;;;;;;20.70;15.75;;;;;;;7.71;100.00;102369.22;4970012;28;20052;-49
2022/11/30 10:05:54;;;;;;;23.33;16.35;;;;;;;7.66;100.00;102371.72;4995454;28;20042;-49
2022/11/30 10:08:57;;;;;;;23.60;16.42;;;;;;;7.59;100.00;102366.31;4985220;28;20034;-50
2022/11/30 10:11:43;;;;;;;22.10;16.08;;;;;;;7.57;100.00;102373.81;4987134;28;20050;-50
2022/11/30 10:14:30;;;;;;;21.50;15.70;;;;;;;7.58;100.00;102374.69;5012658;28;20096;-52
2022/11/30 10:17:10;;;;;;;20.20;16.10;;;;;;;7.57;100.00;102367.56;4992236;28;20054;-49
2022/11/30 10:20:10;;;;;;;24.35;16.30;;;;;;;7.53;100.00;102367.16;5011644;28;20044;-49
2022/11/30 10:22:55;;;;;;;22.55;16.02;;;;;;;7.57;100.00;102373.00;4955434;28;20051;-49
2022/11/30 10:25:28;;;;;;;21.35;15.80;;;;;;;7.48;100.00;102375.09;4986115;28;20046;-47
2022/11/30 10:28:17;;;;;;;21.10;15.38;;;;;;;7.43;100.00;102366.72;4984161;28;20041;-52
2022/11/30 10:31:08;;;;;;;21.42;16.17;;;;;;;7.39;100.00;102365.50;5001373;28;20046;-50
2022/11/30 10:33:49;;;;;;;20.63;14.65;;;;;;;7.38;100.00;102370.06;4988422;28;20038;-50
2022/11/30 10:36:34;;;;;;;21.08;16.00;;;;;;;7.32;100.00;102367.38;4989071;28;20093;-46
2022/11/30 10:39:05;;;;;;;21.35;16.10;;;;;;;7.15;100.00;102365.06;4998470;28;20062;-49
2022/11/30 10:41:59;;;;;;;21.63;15.68;;;;;;;7.12;100.00;102364.63;4977628;28;20117;-49
2022/11/30 10:44:38;;;;;;;24.13;16.75;;;;;;;7.12;100.00;102360.06;4991555;28;20104;-54
2022/11/30 10:47:11;;;;;;;23.95;17.30;;;;;;;7.19;100.00;102365.47;4992612;28;20125;-50
2022/11/30 10:49:43;;;;;;;24.23;17.75;;;;;;;7.27;100.00;102369.88;4977974;28;20069;-50
2022/11/30 10:52:12;;;;;;;24.67;19.00;;;;;;;7.34;100.00;102360.69;4957634;28;20046;-49
2022/11/30 10:54:39;;;;;;;26.52;20.48;;;;;;;7.35;100.00;102358.81;4989564;28;20034;-48
2022/11/30 10:57:07;;;;;;;26.85;19.92;;;;;;;7.39;100.00;102347.34;5000361;28;20046;-51
2022/11/30 10:59:47;;;;;;;24.85;18.83;;;;;;;7.45;100.00;102348.38;4973401;28;20049;-48
2022/11/30 11:02:41;;;;;;;26.50;20.00;;;;;;;7.51;100.00;102347.56;4996702;28;20047;-49
2022/11/30 11:05:08;;;;;;;29.90;20.52;;;;;;;7.55;100.00;102353.38;5001627;28;20068;-52
2022/11/30 11:07:51;;;;;;;29.25;22.02;;;;;;;7.52;100.00;102346.50;4999298;28;20041;-50
2022/11/30 11:10:43;;;;;;;26.75;21.13;;;;;;;7.48;100.00;102350.69;4979967;28;20054;-49
2022/11/30 11:13:20;;;;;;;29.13;22.52;;;;;;;7.41;100.00;102347.16;4975091;28;20078;-49
2022/11/30 11:15:59;;;;;;;31.23;22.08;;;;;;;7.41;100.00;102347.16;4974705;28;20505;-51
2022/11/30 11:18:29;;;;;;;29.50;22.33;;;;;;;7.46;100.00;102350.88;4974115;28;20042;-49
2022/11/30 11:21:17;;;;;;;30.17;22.13;;;;;;;7.50;100.00;102350.47;4976486;28;20121;-49
2022/11/30 11:23:45;;;;;;;29.80;22.27;;;;;;;7.47;100.00;102346.28;5006455;28;20112;-51
2022/11/30 11:26:20;;;;;;;29.33;21.33;;;;;;;7.43;100.00;102345.03;4986459;28;20038;-48
2022/11/30 11:28:51;;;;;;;26.92;21.77;;;;;;;7.37;100.00;102338.59;5005217;28;20053;-50
2022/11/30 11:31:33;;;;;;;27.75;21.98;;;;;;;7.36;100.00;102355.06;4997432;28;20048;-52